Date,TemperatureHighF,TemperatureAvgF,TemperatureLowF,DewpointHighF,DewpointAvgF,DewpointLowF,HumidityHigh,HumidityAvg,HumidityLow,PressureMaxIn,PressureMinIn,WindSpeedMaxMPH,WindSpeedAvgMPH,GustSpeedMaxMPH,PrecipitationSumIn
2013-1-1,12,1,-14,8,-4,-19,85,79,62,30.35,30.15,19,4,21,0.00
2013-1-2,16,14,12,12,11,8,88,86,82,30.15,30.04,12,3,13,0.00
2013-1-3,20,16,11,15,11,6,88,81,71,30.24,30.02,23,7,23,0.00
2013-1-4,34,18,7,21,12,4,88,79,57,30.21,30.00,18,5,20,0.00
2013-1-5,31,16,3,19,11,0,88,80,60,30.21,29.91,12,1,15,0.00
2013-1-6,25,20,12,21,14,8,86,78,63,30.23,29.99,16,3,16,0.00
2013-1-7,34,24,14,24,18,6,89,77,67,30.13,29.87,23,8,24,0.00
2013-1-8,38,24,6,28,19,2,91,82,63,30.10,29.78,24,4,28,0.00
2013-1-9,33,28,17,27,22,13,86,76,64,30.41,29.83,31,10,36,0.00
2013-1-10,42,32,15,32,19,11,92,63,34,30.44,29.81,19,5,24,0.22
2013-1-11,40,36,34,39,35,32,95,94,92,29.82,29.40,20,4,20,0.09
2013-1-12,41,23,11,40,18,5,95,83,75,30.06,29.38,31,12,32,0.02
2013-1-13,11,7,3,6,2,-1,83,79,74,30.27,30.02,14,4,15,0.00
2013-1-14,9,4,1,2,0,-3,84,81,72,30.46,30.27,15,4,17,0.00
2013-1-15,25,15,4,16,8,0,85,75,56,30.43,29.87,17,5,19,0.00
2013-1-16,27,20,6,23,14,-2,91,76,61,30.24,29.63,22,6,24,0.01
2013-1-17,8,2,-7,0,-5,-12,82,72,66,30.47,30.24,14,2,14,0.00
2013-1-18,26,15,-7,22,11,-11,87,84,80,30.44,29.84,14,2,16,0.09
2013-1-19,31,18,1,27,14,-5,91,82,68,30.11,29.62,33,6,33,0.00
2013-1-20,2,-4,-10,-5,-10,-15,81,75,62,30.38,30.11,16,4,16,0.00
2013-1-21,-7,-13,-16,-12,-20,-24,81,69,60,30.39,30.28,22,6,22,0.00
2013-1-22,-3,-11,-20,-12,-18,-26,76,70,61,30.51,30.37,16,5,17,0.00
2013-1-23,7,-5,-14,0,-10,-20,80,77,67,30.70,30.23,23,3,26,0.00
2013-1-24,6,-4,-19,1,-10,-24,81,73,59,30.80,30.35,12,2,14,0.00
2013-1-25,16,10,0,9,5,-6,84,80,72,30.35,30.02,13,3,14,0.11
2013-1-26,19,8,-11,11,2,-16,86,76,68,30.48,30.31,12,2,13,0.00
2013-1-27,33,25,16,26,18,9,91,77,59,30.31,29.90,16,4,16,0.00
2013-1-28,35,28,20,30,25,17,93,89,80,29.97,29.73,9,1,9,0.36
2013-1-29,33,30,26,31,28,22,93,91,86,29.74,29.55,13,2,17,0.03
2013-1-30,26,16,7,22,13,3,87,85,82,29.73,29.59,16,3,20,0.03
2013-1-31,7,4,-5,4,-1,-10,84,80,75,30.21,29.68,12,4,18,0.00
2013-2-1,-3,-9,-22,-10,-16,-27,78,72,63,30.36,30.22,12,4,14,0.00
2013-2-2,9,0,-16,-1,-6,-21,82,74,59,30.30,30.07,12,2,13,0.00
2013-2-3,9,2,-8,0,-4,-13,82,75,58,30.12,30.02,16,3,16,0.00
2013-2-4,12,-2,-21,-2,-10,-26,85,68,45,30.18,29.93,11,2,12,0.00
2013-2-5,20,10,-7,13,5,-12,88,81,64,30.17,29.77,13,2,15,0.11
2013-2-6,20,10,-9,18,6,-14,90,85,79,30.26,30.15,8,1,9,0.07
2013-2-7,23,20,15,20,17,12,90,88,83,30.36,30.18,18,2,21,0.00
2013-2-8,24,14,5,15,10,0,89,83,63,30.48,30.36,9,1,13,0.00
2013-2-9,23,18,2,19,15,-2,91,87,77,30.38,30.09,15,4,19,0.00
2013-2-10,32,27,21,30,24,19,93,92,91,30.09,29.33,14,2,19,0.40
2013-2-11,31,25,19,29,22,16,93,89,84,30.00,29.33,13,2,14,0.08
2013-2-12,26,19,15,22,16,12,91,87,83,30.03,29.81,14,5,16,0.00
2013-2-13,36,27,18,28,22,15,89,84,71,29.81,29.67,13,4,13,0.00
2013-2-14,28,20,4,24,16,0,90,83,72,30.15,29.69,16,2,16,0.01
2013-2-15,15,7,-1,5,0,-5,87,74,55,30.32,30.15,21,3,21,0.00
2013-2-16,15,0,-15,2,-8,-20,86,72,48,30.30,30.25,10,1,11,0.00
2013-2-17,25,7,-18,13,-1,-24,84,68,53,30.29,29.88,23,4,23,0.00
2013-2-18,30,25,16,26,20,11,89,82,72,29.89,29.55,22,4,23,0.00
2013-2-19,15,5,-1,11,-1,-7,84,76,68,30.37,29.67,21,5,22,0.00
2013-2-20,17,7,-7,8,2,-11,84,78,65,30.58,30.37,13,2,13,0.00
2013-2-21,28,11,-12,16,6,-17,87,78,57,30.62,30.27,22,2,22,0.01
2013-2-22,25,21,18,22,18,14,91,88,84,30.27,29.86,13,2,13,0.29
2013-2-23,30,26,19,25,22,17,91,88,78,29.96,29.83,10,1,11,0.00
2013-2-24,31,24,9,26,21,6,92,88,77,30.16,29.96,8,1,8,0.01
2013-2-25,31,18,1,26,14,-3,91,85,81,30.22,30.15,9,1,9,0.01
2013-2-26,40,24,4,29,19,1,92,81,59,30.19,29.97,22,3,22,0.00
2013-2-27,30,28,27,26,24,23,89,85,80,30.05,29.90,29,5,29,0.00
2013-2-28,27,23,20,24,19,15,89,83,77,30.32,30.05,18,4,25,0.00
2013-3-1,25,19,5,16,14,1,86,79,66,30.44,30.32,20,4,24,0.00
2013-3-2,27,10,-8,12,1,-13,88,69,38,30.44,30.30,16,1,16,0.00
2013-3-3,33,8,-10,13,-1,-15,86,70,33,30.31,30.16,11,1,11,0.00
2013-3-4,34,23,7,20,10,2,86,61,33,30.20,30.12,12,2,14,0.00
2013-3-5,28,24,19,20,16,11,88,73,56,30.32,30.10,18,3,21,0.00
2013-3-6,29,20,4,16,13,0,88,76,52,30.43,30.30,14,2,15,0.01
2013-3-7,36,16,-4,20,8,-8,89,73,47,30.52,30.42,9,1,9,0.00
2013-3-8,41,29,17,28,21,12,84,72,58,30.47,30.23,18,4,18,0.00
2013-3-9,34,32,29,32,28,22,93,87,74,30.23,29.80,14,3,14,0.04
2013-3-10,34,31,27,32,28,23,94,87,80,30.02,29.82,29,4,31,0.21
2013-3-11,27,24,21,24,21,17,91,88,82,29.93,29.77,21,4,26,0.00
2013-3-12,24,20,16,17,16,12,88,83,67,30.16,29.81,20,4,20,0.00
2013-3-13,32,18,4,12,6,0,86,63,29,30.39,30.16,14,2,18,0.04
2013-3-14,35,21,2,27,14,-2,85,77,59,30.34,30.08,16,4,16,0.02
2013-3-15,31,24,15,26,18,11,87,79,67,30.08,29.98,20,4,21,0.01
2013-3-16,23,15,4,12,8,0,86,73,57,30.29,30.02,21,4,22,0.00
2013-3-17,29,11,-14,10,-2,-19,84,60,33,30.37,30.06,19,3,21,0.17
2013-3-18,29,22,16,25,17,10,87,82,66,30.06,29.56,21,7,21,0.09
2013-3-19,25,16,10,14,6,0,85,66,44,30.09,29.62,26,10,32,0.00
2013-3-20,16,9,3,6,1,-4,80,69,57,30.19,30.09,18,5,20,0.00
2013-3-21,29,15,5,13,8,0,85,72,50,30.18,30.10,13,2,14,0.00
2013-3-22,30,15,-3,21,9,-7,87,77,63,30.20,30.13,16,1,16,0.00
2013-3-23,34,22,6,22,16,2,89,78,60,30.26,30.18,12,1,15,0.00
2013-3-24,31,23,16,24,18,12,89,82,73,30.21,30.06,21,3,27,0.01
2013-3-25,32,24,12,23,19,8,90,81,62,30.26,30.08,17,2,18,0.00
2013-3-26,36,30,22,25,22,19,88,73,49,30.33,30.26,10,1,13,0.00
2013-3-27,42,32,20,23,20,16,84,65,39,30.36,30.32,12,1,15,0.00
2013-3-28,44,29,13,24,17,9,87,64,35,30.41,30.32,11,1,13,0.00
2013-3-29,47,33,15,29,21,12,87,64,40,30.38,30.17,17,3,18,0.00
2013-3-30,43,37,30,39,33,25,94,86,60,30.17,29.80,12,4,12,0.35
2013-3-31,33,31,28,30,28,21,94,88,61,29.80,29.71,20,4,23,0.02
2013-4-1,30,24,18,14,9,7,78,54,39,30.23,30.04,20,5,22,0.00
2013-4-2,34,24,16,15,11,7,76,57,33,30.41,30.23,18,3,20,0.00
2013-4-3,41,27,8,23,12,3,85,58,31,30.49,30.11,26,5,26,0.00
2013-4-4,45,38,29,32,24,17,73,58,41,30.18,30.00,26,6,26,0.00
2013-4-5,39,31,19,26,18,14,85,60,38,30.31,30.12,13,2,15,0.00
2013-4-6,40,33,30,35,30,27,92,88,75,30.12,29.60,21,3,21,0.26
2013-4-7,39,33,29,33,29,27,92,87,77,29.98,29.69,7,1,8,0.10
2013-4-8,39,35,31,37,33,29,94,93,90,30.10,29.82,10,1,10,0.45
2013-4-9,39,34,30,33,28,19,94,79,52,30.23,30.07,25,3,27,0.00
2013-4-10,38,32,28,26,23,16,86,67,53,30.28,30.08,22,4,22,0.00
2013-4-11,31,29,25,27,23,17,89,77,54,30.11,29.82,22,5,28,0.02
2013-4-12,33,28,25,28,24,22,90,86,74,29.85,29.74,16,3,16,0.46
2013-4-13,33,26,15,24,20,12,90,81,63,30.05,29.83,12,2,12,0.00
2013-4-14,40,26,10,31,22,7,92,82,56,30.08,29.70,21,3,21,0.70
2013-4-15,36,34,33,32,29,26,93,82,73,29.92,29.60,26,9,26,0.20
2013-4-16,43,36,27,30,27,24,87,73,49,30.41,29.92,19,5,20,0.00
2013-4-17,39,32,27,30,27,23,91,81,65,30.44,30.07,14,2,17,0.00
2013-4-18,33,31,29,30,29,27,93,92,91,30.07,29.39,26,3,30,0.17
2013-4-19,29,26,16,27,23,10,93,88,78,30.00,29.34,23,5,31,0.95
2013-4-20,34,20,0,23,11,-3,91,71,44,30.45,30.00,13,1,16,0.00
2013-4-21,37,30,16,35,26,13,92,84,71,30.46,30.13,27,5,27,0.20
2013-4-22,48,38,30,36,30,22,93,76,43,30.26,30.12,15,3,17,0.03
2013-4-23,43,32,21,30,26,16,92,77,46,30.12,30.04,17,3,17,0.49
2013-4-24,44,30,13,32,23,10,91,76,50,30.06,29.92,26,5,28,0.03
2013-4-25,45,35,22,32,26,19,93,70,44,30.22,29.98,21,4,22,0.05
2013-4-26,61,46,35,42,35,27,90,67,47,30.20,30.06,17,4,19,0.10
2013-4-27,66,47,30,44,35,27,93,68,37,30.17,29.94,17,3,18,0.00
2013-4-28,68,54,41,51,44,37,92,71,44,29.94,29.69,18,4,23,0.32
2013-4-29,72,52,36,50,42,33,94,73,37,29.80,29.64,9,1,10,0.00
2013-4-30,71,58,45,57,46,31,92,68,41,29.89,29.44,25,7,32,0.00
2013-5-1,48,39,32,39,33,29,92,81,56,30.51,29.89,11,2,14,0.51
2013-5-2,34,30,29,30,28,26,92,89,82,30.58,30.48,13,1,17,0.95
2013-5-3,30,29,28,28,27,25,92,90,88,30.49,30.26,22,3,22,0.28
2013-5-4,39,33,30,36,31,28,93,92,87,30.27,30.22,19,3,19,0.07
2013-5-5,52,38,32,42,34,30,94,86,67,30.26,30.16,10,2,12,0.00
2013-5-6,68,48,30,48,38,28,94,72,44,30.19,30.05,8,0,10,0.00
2013-5-7,75,54,34,48,40,32,94,64,32,30.12,29.98,12,1,15,0.00
2013-5-8,75,55,38,55,44,34,93,70,37,30.05,29.98,13,1,14,0.01
2013-5-9,53,41,34,48,37,28,92,86,76,30.19,29.98,18,3,23,0.25
2013-5-10,58,42,29,32,29,26,91,62,33,30.20,29.90,17,2,18,0.00
2013-5-11,42,38,36,34,28,23,87,67,54,30.14,29.86,24,5,27,0.05
2013-5-12,49,39,31,24,22,18,66,50,31,30.19,30.12,19,4,23,0.00
2013-5-13,58,44,25,37,27,19,87,54,33,30.19,29.74,15,3,18,0.00
2013-5-14,82,63,41,52,44,35,84,53,30,29.80,29.40,28,4,28,0.00
2013-5-15,75,63,52,48,43,38,74,50,28,29.82,29.54,22,5,25,0.00
2013-5-16,71,60,48,46,39,32,79,50,27,30.01,29.80,17,2,17,0.00
2013-5-17,74,60,49,50,42,34,75,53,39,30.08,30.00,15,3,19,0.00
2013-5-18,70,58,51,62,54,48,94,87,72,30.03,29.85,12,3,14,1.36
2013-5-19,83,66,54,65,59,51,95,82,50,29.87,29.65,19,3,25,1.25
2013-5-20,72,59,43,62,55,41,95,87,60,29.67,29.51,17,2,17,0.81
2013-5-21,50,44,40,46,41,38,94,91,82,29.79,29.59,12,2,15,0.82
2013-5-22,48,43,40,46,41,38,94,92,86,30.08,29.77,24,3,25,0.14
2013-5-23,54,44,35,39,33,30,86,67,40,30.39,30.08,22,4,31,0.00
2013-5-24,68,50,30,43,35,27,92,62,32,30.48,30.28,13,2,14,0.00
2013-5-25,68,56,43,48,42,38,85,64,38,30.35,30.25,13,2,15,1.96
2013-5-26,72,57,41,42,39,35,90,55,28,30.32,30.13,15,2,17,0.00
2013-5-27,71,58,47,49,43,39,75,58,41,30.17,29.89,17,4,18,0.00
2013-5-28,66,59,53,55,50,44,91,73,62,29.90,29.70,13,2,14,0.01
2013-5-29,82,65,56,66,57,53,94,79,47,29.83,29.68,13,3,14,0.01
2013-5-30,77,68,61,66,62,59,94,82,63,29.74,29.54,23,4,24,0.13
2013-5-31,78,66,55,62,57,46,91,75,50,29.62,29.49,22,5,25,0.18
2013-6-1,68,54,41,58,50,39,94,89,70,29.89,29.55,16,1,20,0.04
2013-6-2,63,49,41,43,40,38,93,74,42,30.07,29.89,18,2,19,0.05
2013-6-3,65,52,36,43,38,32,93,63,34,30.12,30.03,14,1,14,0.00
2013-6-4,63,54,48,52,45,33,92,71,51,30.16,30.10,10,2,10,0.13
2013-6-5,54,51,50,52,49,48,94,93,89,30.15,30.01,13,2,17,0.75
2013-6-6,54,50,48,51,48,45,94,92,87,30.06,30.01,13,1,13,0.04
2013-6-7,68,55,42,53,46,40,95,75,45,30.07,29.94,9,0,11,0.00
2013-6-8,71,58,49,57,51,45,94,78,47,29.99,29.91,11,1,11,0.06
2013-6-9,60,55,51,58,53,48,94,90,80,30.00,29.84,13,2,14,0.19
2013-6-10,76,64,57,63,59,55,94,83,59,29.86,29.77,11,1,12,0.01
2013-6-11,80,67,55,63,57,51,94,74,39,29.86,29.79,10,1,14,0.00
2013-6-12,79,66,51,59,52,48,91,65,41,29.88,29.74,12,0,17,0.00
2013-6-13,70,60,52,54,50,47,88,69,48,30.11,29.86,18,2,18,0.00
2013-6-14,76,63,47,55,50,44,93,67,42,30.14,29.93,12,1,14,0.00
2013-6-15,69,65,61,64,60,54,93,87,74,29.94,29.78,14,2,15,0.33
2013-6-16,78,64,54,59,55,51,94,77,42,29.87,29.78,20,2,21,0.19
2013-6-17,63,55,44,58,51,41,94,85,72,30.07,29.83,13,1,17,0.02
2013-6-18,72,56,39,51,43,37,94,67,34,30.17,30.06,13,1,13,0.00
2013-6-19,77,63,46,60,52,42,92,69,48,30.11,29.97,11,2,14,0.00
2013-6-20,76,66,59,66,61,55,94,86,68,30.04,29.97,11,2,15,2.66
2013-6-21,65,62,57,63,60,55,95,94,90,30.10,29.76,13,2,14,0.69
2013-6-22,72,64,57,68,61,55,95,93,84,30.05,29.88,10,0,13,0.05
2013-6-23,79,71,63,69,65,61,96,81,64,29.89,29.67,28,5,28,0.05
2013-6-24,80,71,60,69,63,58,94,78,53,29.88,29.75,16,2,18,0.00
2013-6-25,84,73,62,70,65,59,95,78,55,29.81,29.70,9,0,11,0.00
2013-6-26,80,71,65,72,68,63,95,90,73,29.73,29.62,17,1,24,0.49
2013-6-27,80,71,63,68,63,57,95,78,52,29.75,29.65,22,3,27,0.22
2013-6-28,68,63,59,64,60,56,93,88,75,29.76,29.63,15,2,15,0.26
2013-6-29,69,61,53,58,54,47,94,78,56,29.97,29.74,18,1,18,0.00
2013-6-30,79,64,50,57,52,46,91,67,39,30.10,29.97,16,1,16,0.00
2013-7-1,76,64,49,60,53,44,91,71,46,30.18,30.10,14,1,15,1.96
2013-7-2,75,60,43,55,45,38,92,62,28,30.20,30.08,11,0,11,0.00
2013-7-3,80,64,45,59,51,42,94,65,35,30.10,29.95,9,1,11,0.00
2013-7-4,81,70,56,64,60,53,92,71,49,29.98,29.86,15,3,17,0.00
2013-7-5,83,74,62,65,61,58,88,65,46,29.90,29.79,20,5,20,0.00
2013-7-6,82,74,68,72,66,61,93,75,58,29.86,29.80,14,4,18,0.04
2013-7-7,83,72,58,74,67,55,94,84,67,29.91,29.79,14,2,14,0.76
2013-7-8,78,65,56,70,61,54,95,88,72,29.98,29.83,10,1,12,0.01
2013-7-9,75,68,59,71,65,57,95,91,86,29.98,29.72,13,1,18,0.32
2013-7-10,73,65,58,63,56,53,90,75,52,30.00,29.81,17,3,19,1.96
2013-7-11,80,68,52,61,56,49,95,69,42,30.11,29.98,12,1,13,0.00
2013-7-12,82,72,63,65,61,57,85,69,49,30.03,29.90,18,4,21,0.00
2013-7-13,79,72,66,68,63,59,82,73,67,30.07,29.92,15,4,15,0.00
2013-7-14,82,71,66,68,64,60,91,79,55,30.17,30.07,16,2,17,0.06
2013-7-15,84,73,62,68,65,60,94,77,54,30.23,30.15,13,2,13,0.00
2013-7-16,87,78,69,74,70,65,94,78,59,30.16,30.09,20,5,23,0.12
2013-7-17,86,78,68,72,70,66,94,77,57,30.17,30.05,21,3,21,0.00
2013-7-18,88,80,70,73,71,68,93,74,58,30.05,29.62,32,8,32,0.00
2013-7-19,81,74,62,72,65,56,93,75,50,29.77,29.57,20,4,21,0.09
2013-7-20,68,62,50,61,52,45,85,71,53,30.00,29.77,12,1,19,0.00
2013-7-21,74,62,50,63,55,45,89,77,62,30.00,29.84,10,1,10,0.00
2013-7-22,80,68,60,70,62,53,93,80,55,29.84,29.59,21,4,26,0.00
2013-7-23,68,60,53,54,51,48,88,72,50,30.01,29.74,14,2,15,0.00
2013-7-24,69,60,49,58,52,46,93,76,57,30.07,29.96,16,3,16,0.00
2013-7-25,76,65,56,65,58,52,92,80,58,29.97,29.83,17,3,17,0.39
2013-7-26,63,55,47,58,52,45,94,90,78,30.03,29.83,15,2,17,0.08
2013-7-27,53,49,46,49,46,43,93,89,79,30.01,29.87,12,2,13,0.04
2013-7-28,60,54,49,56,51,46,94,89,80,30.05,29.90,13,1,15,0.03
2013-7-29,72,60,46,58,52,44,95,77,54,30.13,30.04,10,1,12,0.00
2013-7-30,67,63,59,61,58,55,92,85,75,30.12,30.02,14,2,14,0.00
2013-7-31,74,66,60,62,58,51,94,78,47,30.03,29.90,24,4,29,0.00
2013-8-1,72,63,54,59,54,49,89,74,56,29.95,29.82,19,2,19,0.00
2013-8-2,71,62,54,57,54,51,94,75,53,30.00,29.80,17,1,17,0.04
2013-8-3,72,61,51,56,52,48,92,74,47,30.19,30.00,15,1,20,0.00
2013-8-4,71,59,46,56,50,44,94,75,51,30.24,30.03,10,0,11,0.00
2013-8-5,71,61,53,64,58,49,94,89,79,30.04,29.77,8,2,9,1.03
2013-8-6,74,66,61,64,61,58,93,85,60,29.79,29.65,15,2,15,0.10
2013-8-7,72,63,53,60,54,48,94,75,46,30.00,29.69,14,1,14,0.01
2013-8-8,71,59,48,60,54,46,94,82,57,30.03,29.96,24,2,24,0.02
2013-8-9,68,60,52,56,53,49,93,77,54,30.09,29.95,17,2,22,0.00
2013-8-10,72,62,54,59,55,51,91,78,55,30.15,30.07,10,1,13,0.00
2013-8-11,76,62,49,60,54,47,94,77,51,30.10,29.98,9,0,11,0.00
2013-8-12,74,62,49,60,54,46,94,77,54,30.08,29.94,14,1,16,0.00
2013-8-13,67,56,46,54,48,43,94,78,58,30.20,30.07,10,1,11,0.01
2013-8-14,71,57,44,54,48,41,93,75,47,30.22,30.09,15,0,15,0.00
2013-8-15,76,62,48,60,53,46,94,74,46,30.11,30.06,13,1,15,0.00
2013-8-16,80,65,50,62,55,48,94,73,41,30.15,30.10,11,1,14,0.00
2013-8-17,78,66,52,60,56,50,94,73,50,30.19,30.07,21,4,21,0.01
2013-8-18,78,66,52,61,56,50,93,71,48,30.14,29.97,22,4,23,0.00
2013-8-19,80,70,62,68,62,57,86,77,65,30.00,29.87,20,5,21,0.00
2013-8-20,85,75,64,72,67,61,93,79,62,29.91,29.80,18,4,20,0.00
2013-8-21,81,73,63,74,68,60,92,85,67,29.98,29.78,14,2,15,0.12
2013-8-22,78,67,53,60,54,50,91,66,40,30.13,29.98,10,1,13,0.00
2013-8-23,80,64,49,60,53,46,93,71,39,30.17,30.05,14,1,14,0.00
2013-8-24,82,72,62,70,64,58,91,76,61,30.12,29.90,22,4,28,0.00
2013-8-25,90,81,72,76,72,69,90,76,59,29.95,29.85,26,8,26,0.00
2013-8-26,83,76,69,77,72,67,94,88,75,29.98,29.82,26,2,33,2.44
2013-8-27,82,72,66,75,69,65,96,92,74,29.89,29.74,13,1,13,1.47
2013-8-28,82,70,62,71,66,60,95,87,54,30.02,29.88,7,0,8,0.01
2013-8-29,81,71,66,73,68,64,94,90,72,30.01,29.75,17,2,19,0.47
2013-8-30,76,69,59,69,65,57,95,87,68,29.90,29.77,14,2,18,0.01
2013-8-31,80,68,56,68,62,54,95,83,61,29.89,29.66,13,2,14,0.08
2013-9-1,74,65,58,63,60,53,93,83,62,29.92,29.65,16,3,19,0.01
2013-9-2,60,54,47,54,50,45,92,85,70,30.06,29.91,14,1,14,0.02
2013-9-3,71,58,43,59,52,41,95,81,60,30.08,29.95,18,3,18,0.01
2013-9-4,68,61,51,58,55,48,92,81,62,30.18,29.97,12,1,13,0.00
2013-9-5,74,59,44,57,50,42,94,74,46,30.29,30.14,7,1,8,0.01
2013-9-6,81,68,55,70,62,51,92,81,65,30.15,29.85,17,3,18,0.00
2013-9-7,80,67,57,72,63,54,95,87,70,30.08,29.83,15,1,16,0.00
2013-9-8,69,60,51,58,54,48,92,80,58,30.13,29.92,11,1,12,0.02
2013-9-9,78,67,60,72,64,56,95,91,81,29.93,29.62,11,1,13,0.17
2013-9-10,74,69,63,68,66,61,95,89,75,29.89,29.67,16,4,16,0.06
2013-9-11,75,66,58,64,59,54,95,81,54,30.00,29.89,21,3,21,0.06
2013-9-12,63,56,46,55,50,43,93,82,60,30.22,29.97,12,2,18,0.01
2013-9-13,63,51,40,51,45,38,95,80,54,30.29,30.11,7,0,10,0.01
2013-9-14,68,55,42,56,49,40,94,81,58,30.11,29.93,16,3,21,0.12
2013-9-15,56,51,39,54,48,37,94,90,80,30.33,29.94,19,1,21,0.08
2013-9-16,63,47,34,49,40,32,95,79,48,30.47,30.31,9,1,9,0.00
2013-9-17,67,54,40,53,45,38,93,75,46,30.33,30.00,15,3,19,0.01
2013-9-18,66,61,56,64,59,53,95,93,86,30.00,29.75,10,2,12,0.05
2013-9-19,72,67,65,69,65,63,95,93,88,29.77,29.61,19,3,19,0.50
2013-9-20,66,58,50,64,54,46,94,86,73,29.83,29.64,13,4,18,0.02
2013-9-21,57,49,40,46,42,37,90,79,59,30.00,29.83,15,2,17,0.00
2013-9-22,63,48,35,48,41,33,94,78,52,30.09,29.98,11,1,11,0.00
2013-9-23,69,55,44,54,48,42,92,76,52,30.06,29.97,17,3,17,0.00
2013-9-24,73,57,44,55,49,42,94,76,46,30.03,29.94,8,1,10,0.00
2013-9-25,73,56,45,58,49,42,95,81,51,30.01,29.92,9,0,9,0.01
2013-9-26,73,58,46,56,50,44,94,77,49,30.04,29.94,12,2,14,0.03
2013-9-27,76,66,56,62,56,50,85,70,59,30.02,29.84,19,4,20,0.00
2013-9-28,71,60,50,61,54,47,92,79,61,29.89,29.57,29,6,32,0.22
2013-9-29,68,54,41,51,46,39,94,76,46,29.97,29.85,15,3,16,0.01
2013-9-30,70,61,53,54,50,47,80,68,55,29.85,29.63,23,6,24,0.00
2013-10-1,70,62,50,55,47,38,83,60,31,29.92,29.58,25,7,25,0.00
2013-10-2,72,55,40,51,43,37,93,69,31,30.06,29.92,10,1,11,0.22
2013-10-3,56,53,50,53,51,49,95,93,88,29.98,29.89,12,1,14,0.39
2013-10-4,58,52,50,53,50,49,95,92,82,30.08,29.98,16,2,16,0.03
2013-10-5,56,53,50,54,52,48,95,95,94,30.01,29.68,17,2,17,0.89
2013-10-6,56,50,43,52,48,41,95,93,80,29.76,29.64,13,2,14,0.10
2013-10-7,58,46,37,46,41,35,95,84,55,30.02,29.76,12,1,14,0.01
2013-10-8,72,56,38,48,44,36,93,66,40,30.04,29.88,22,4,22,0.00
2013-10-9,71,61,53,53,49,45,81,66,49,30.07,29.94,17,4,18,0.00
2013-10-10,71,57,44,50,46,41,90,70,43,30.09,29.96,18,2,18,0.00
2013-10-11,73,61,48,57,52,45,92,72,52,29.99,29.71,26,5,28,1.96
2013-10-12,64,55,46,55,47,41,91,76,62,30.06,29.67,26,11,28,0.00
2013-10-13,55,46,35,44,38,32,89,74,43,30.43,30.06,15,3,16,0.00
2013-10-14,54,43,31,41,36,29,92,76,54,30.47,30.15,13,1,13,0.00
2013-10-15,50,48,44,48,45,40,95,92,71,30.15,29.70,22,2,24,1.17
2013-10-16,45,41,33,43,38,31,94,90,77,29.91,29.75,18,3,19,0.05
2013-10-17,50,39,31,44,37,29,94,90,72,29.90,29.79,8,0,8,0.06
2013-10-18,48,41,34,41,36,29,94,84,53,29.91,29.80,15,2,17,0.14
2013-10-19,40,37,32,37,34,30,94,91,85,29.84,29.67,11,2,12,0.13
2013-10-20,37,32,28,35,30,26,94,93,90,29.81,29.73,7,1,8,0.10
2013-10-21,34,32,30,32,29,26,94,89,81,29.88,29.78,21,8,22,0.05
2013-10-22,34,33,29,31,29,26,91,86,74,30.04,29.88,13,2,16,0.07
2013-10-23,34,31,28,29,26,22,91,81,62,30.06,29.98,15,4,19,0.01
2013-10-24,38,33,30,30,28,26,91,81,66,30.29,30.06,15,4,15,0.03
2013-10-25,49,38,28,40,31,24,90,76,61,30.31,29.71,25,7,25,0.05
2013-10-26,48,39,35,37,33,30,90,79,63,30.05,29.70,18,3,22,0.08
2013-10-27,48,38,31,34,31,27,88,76,58,30.23,29.82,20,5,21,0.01
2013-10-28,40,32,24,29,23,19,89,73,45,30.52,30.23,21,3,21,0.01
2013-10-29,35,30,24,31,27,21,93,86,74,30.52,30.20,9,1,9,0.05
2013-10-30,48,41,33,47,39,31,95,94,93,30.21,29.71,8,2,12,0.08
2013-10-31,50,47,43,49,45,42,96,95,95,29.71,29.29,12,1,14,0.08
2013-11-1,43,39,35,42,37,33,95,93,90,29.81,29.29,14,3,16,0.01
2013-11-2,41,34,27,33,30,25,92,86,63,30.17,29.80,9,1,10,3.92
2013-11-3,46,35,25,35,29,23,93,81,62,30.25,30.06,22,4,25,0.01
2013-11-4,43,41,34,41,37,30,93,85,72,30.13,29.88,22,6,23,0.16
2013-11-5,43,35,30,34,30,27,93,84,60,30.27,30.04,14,2,14,0.05
2013-11-6,33,30,23,31,26,20,93,88,77,30.17,29.98,13,2,15,0.43
2013-11-7,33,25,18,27,21,15,91,85,68,30.25,30.17,15,3,16,0.00
2013-11-8,35,27,16,32,24,13,92,87,81,30.26,29.69,21,3,21,0.01
2013-11-9,36,35,33,34,32,30,94,89,82,30.09,29.64,23,8,28,0.09
2013-11-10,39,35,32,30,28,26,90,77,62,30.32,30.09,19,7,20,0.01
2013-11-11,32,22,16,30,14,9,90,72,57,30.71,30.10,24,4,24,0.00
2013-11-12,26,19,11,14,10,7,84,69,54,30.78,30.49,18,7,18,0.00
2013-11-13,44,31,17,32,23,11,82,71,55,30.49,29.89,24,8,28,0.00
2013-11-14,42,35,29,33,30,26,91,82,70,29.89,29.77,10,2,11,0.00
2013-11-15,49,38,29,38,33,26,93,83,65,29.88,29.75,17,3,18,0.00
2013-11-16,48,42,38,47,38,33,95,87,78,29.75,29.30,18,4,19,0.61
2013-11-17,48,39,30,47,37,27,95,92,86,29.64,29.28,30,8,34,0.00
2013-11-18,30,27,24,27,20,18,88,77,71,30.31,29.64,29,6,30,0.00
2013-11-19,39,29,16,23,20,13,89,70,50,30.36,30.05,21,4,27,0.00
2013-11-20,40,36,32,30,26,21,91,67,51,30.10,30.01,23,6,26,0.00
2013-11-21,34,29,22,32,26,18,94,90,81,30.50,30.09,15,3,21,0.01
2013-11-22,29,21,11,17,12,2,85,71,42,30.59,30.43,22,5,22,0.00
2013-11-23,13,9,5,7,1,-2,83,70,55,30.83,30.59,21,4,22,0.00
2013-11-24,24,12,-2,16,4,-7,84,70,58,30.77,29.99,27,7,28,0.00
2013-11-25,35,30,24,27,22,16,81,73,64,30.01,29.89,26,10,26,0.00
2013-11-26,27,15,11,17,8,3,84,72,56,30.37,30.01,25,4,27,0.00
2013-11-27,22,17,13,15,12,9,87,82,67,30.40,30.20,10,1,11,0.00
2013-11-28,22,18,14,16,14,11,88,84,76,30.57,30.18,10,2,12,0.03
2013-11-29,24,16,1,18,11,-4,88,80,73,30.64,30.28,17,3,19,0.00
2013-11-30,34,28,24,26,22,18,86,79,70,30.28,30.08,11,2,14,0.00
2013-12-1,31,29,26,26,24,22,89,84,78,30.22,30.00,10,2,10,0.00
2013-12-2,32,27,19,28,24,16,92,88,81,30.00,29.78,15,3,17,0.12
2013-12-3,31,28,24,29,26,22,93,91,90,29.94,29.77,15,4,18,0.45
2013-12-4,32,28,24,30,26,21,93,92,90,29.93,29.40,11,2,12,0.94
2013-12-5,24,8,-3,21,4,-7,91,84,79,30.31,29.50,25,8,25,0.00
2013-12-6,4,-4,-10,-2,-9,-15,82,80,76,30.67,30.30,14,5,14,0.00
2013-12-7,-3,-10,-18,-8,-15,-23,81,78,76,30.77,30.67,12,3,12,0.00
2013-12-8,8,-2,-19,4,-7,-24,86,82,77,30.71,30.13,5,0,7,0.00
2013-12-9,7,-1,-11,4,-6,-16,86,80,74,30.13,29.98,22,5,23,0.06
2013-12-10,4,-4,-11,-1,-9,-16,82,80,76,30.31,29.93,18,3,18,0.00
2013-12-11,-4,-9,-14,-9,-14,-20,83,77,71,30.59,30.31,15,5,16,1.96
2013-12-12,8,2,-10,4,-3,-15,84,81,79,30.45,30.27,10,3,14,0.00
2013-12-13,10,5,1,5,1,-4,84,81,76,30.47,30.30,10,1,14,0.00
2013-12-14,15,8,2,11,4,-2,86,83,80,30.47,30.04,12,2,16,0.00
2013-12-15,4,-6,-20,0,-11,-25,82,79,72,30.28,30.06,14,3,15,0.06
2013-12-16,10,-1,-19,7,-6,-25,87,82,76,30.27,29.98,16,4,16,0.01
2013-12-17,24,14,3,21,10,-3,91,85,77,30.12,29.91,16,3,20,0.01
2013-12-18,24,7,-8,17,3,-12,89,81,71,30.12,29.76,13,2,14,0.00
2013-12-19,16,13,4,12,10,1,89,86,81,30.21,29.88,15,2,15,0.00
2013-12-20,21,11,0,15,7,-4,88,84,77,30.17,29.94,10,1,10,0.14
2013-12-21,18,15,6,15,12,3,89,86,81,30.10,29.94,10,1,10,0.00
2013-12-22,24,20,17,20,16,14,90,88,85,30.20,30.01,11,1,13,0.03
2013-12-23,17,12,5,14,9,0,88,85,81,30.50,30.20,11,1,13,0.03
2013-12-24,11,2,-14,6,-2,-19,85,81,75,30.54,30.24,15,3,19,0.02
2013-12-25,16,10,6,12,7,2,86,84,81,30.24,30.10,15,5,15,0.02
2013-12-26,14,8,1,10,4,-4,89,83,78,30.28,30.16,9,1,9,0.00
2013-12-27,29,21,11,26,19,8,93,90,85,30.28,29.90,18,4,18,0.00
2013-12-28,31,25,15,29,23,12,93,92,87,30.03,29.79,23,2,28,0.00
2013-12-29,15,-3,-23,12,-8,-28,88,80,72,30.35,30.01,15,3,20,1.96
2013-12-30,-4,-16,-29,-11,-22,-34,80,75,66,30.44,30.33,9,2,9,0.00
2013-12-31,-7,-16,-24,-14,-21,-30,80,76,69,30.60,30.30,11,2,13,0.00
2014-1-1,1,-7,-23,-4,-12,-28,81,78,76,30.68,30.57,7,0,7,0.00
2014-1-2,5,-10,-23,-2,-16,-29,83,78,69,30.60,30.50,8,1,8,0.00